This is the latest recevied weather packets stored in our database for station/object GCEMA. If no packets are shown the sender has not sent any weather packets the latest 10 day(s).
| Time | Temp. | Humidity | Pressure | Rain* | Wind** | Luminosity | Snow |
|---|---|---|---|---|---|---|---|
| 1777473764 | 16.67° C | - | 1010 hPa | 0 mm | 0 m/s | - | - |
| 1777473582 | 16.11° C | - | 1010 hPa | 0 mm | 0 m/s | - | - |
| 1777473403 | 15.56° C | - | 1010 hPa | 0 mm | 0 m/s | - | - |
| 1777473223 | 15.56° C | - | 1010 hPa | 0 mm | 0 m/s | - | - |
| 1777473043 | 15° C | - | 1010 hPa | 0 mm | 0 m/s | - | - |
| 1777472864 | 16.11° C | - | 1009.9 hPa | 0 mm | 0 m/s | - | - |
| 1777472682 | 15° C | - | 1010 hPa | 0 mm | 0 m/s | - | - |
| 1777472322 | 16.11° C | - | 1009.8 hPa | 0 mm | 0 m/s | - | - |
| 1777472143 | 16.67° C | - | 1009.7 hPa | 0 mm | 0 m/s | - | - |
| 1777471964 | 16.11° C | - | 1009.7 hPa | 0 mm | 0 m/s | - | - |
| 1777471781 | 16.11° C | - | 1009.6 hPa | 0 mm | 0 m/s | - | - |
| 1777471601 | 16.67° C | - | 1009.6 hPa | 0 mm | 0 m/s | - | - |
| 1777471422 | 16.11° C | - | 1009.6 hPa | 0 mm | 0 m/s | - | - |
| 1777471242 | 16.11° C | - | 1009.6 hPa | 0 mm | 0 m/s | - | - |
| 1777471063 | 16.67° C | - | 1009.6 hPa | 0 mm | 0 m/s | - | - |
| 1777470879 | 17.22° C | - | 1009.6 hPa | 0 mm | 0 m/s | - | - |
| 1777470700 | 16.11° C | - | 1009.7 hPa | 0 mm | 0 m/s | - | - |
| 1777470520 | 17.78° C | - | 1009.7 hPa | 0 mm | 0 m/s | - | - |
| 1777470341 | 17.22° C | - | 1009.7 hPa | 0 mm | 0 m/s | - | - |
| 1777470161 | 16.67° C | - | 1009.8 hPa | 0 mm | 0 m/s | - | - |
| 1777469979 | 16.67° C | - | 1009.8 hPa | 0 mm | 0 m/s | - | - |
| 1777469799 | 16.11° C | - | 1009.8 hPa | 0 mm | 0 m/s | - | - |
| 1777469620 | 16.11° C | - | 1009.8 hPa | 0 mm | 0 m/s | - | - |
| 1777469440 | 16.11° C | - | 1009.7 hPa | 0 mm | 0 m/s | - | - |
| 1777469261 | 16.11° C | - | 1009.8 hPa | 0 mm | 0 m/s | - | - |
* Rain latest hour (hover to see other rain measurements)
** Current wind speed in m/s (hover to see current wind gust speed)